sensor_id;sensor_type;location;lat;lon;timestamp;P1;durP1;ratioP1;P2;durP2;ratioP2
27275;SDS011;14772;47.398;8.080;2022-09-20T00:01:44;9.13;;;2.20;;
27275;SDS011;14772;47.398;8.080;2022-09-20T00:06:42;5.97;;;2.03;;
27275;SDS011;14772;47.398;8.080;2022-09-20T00:11:40;9.80;;;2.30;;
27275;SDS011;14772;47.398;8.080;2022-09-20T00:16:39;9.00;;;2.30;;
27275;SDS011;14772;47.398;8.080;2022-09-20T00:21:37;8.40;;;2.30;;
27275;SDS011;14772;47.398;8.080;2022-09-20T00:26:35;7.80;;;2.27;;
27275;SDS011;14772;47.398;8.080;2022-09-20T00:31:33;7.60;;;2.23;;
27275;SDS011;14772;47.398;8.080;2022-09-20T00:36:30;9.97;;;2.30;;
27275;SDS011;14772;47.398;8.080;2022-09-20T00:41:27;7.17;;;2.30;;
27275;SDS011;14772;47.398;8.080;2022-09-20T00:46:27;8.50;;;2.10;;
27275;SDS011;14772;47.398;8.080;2022-09-20T00:51:28;10.33;;;2.20;;
27275;SDS011;14772;47.398;8.080;2022-09-20T00:56:28;8.90;;;2.20;;
27275;SDS011;14772;47.398;8.080;2022-09-20T01:01:28;7.73;;;2.17;;
27275;SDS011;14772;47.398;8.080;2022-09-20T01:06:26;7.83;;;2.20;;
27275;SDS011;14772;47.398;8.080;2022-09-20T01:11:24;7.07;;;2.00;;
27275;SDS011;14772;47.398;8.080;2022-09-20T01:16:22;8.37;;;2.20;;
27275;SDS011;14772;47.398;8.080;2022-09-20T01:21:22;8.77;;;2.10;;
27275;SDS011;14772;47.398;8.080;2022-09-20T01:26:34;6.67;;;2.30;;
27275;SDS011;14772;47.398;8.080;2022-09-20T01:31:55;9.33;;;2.40;;
27275;SDS011;14772;47.398;8.080;2022-09-20T01:36:56;8.63;;;2.40;;
27275;SDS011;14772;47.398;8.080;2022-09-20T01:41:58;6.73;;;2.20;;
27275;SDS011;14772;47.398;8.080;2022-09-20T01:47:00;8.10;;;2.30;;
27275;SDS011;14772;47.398;8.080;2022-09-20T02:03:20;12.17;;;2.37;;
27275;SDS011;14772;47.398;8.080;2022-09-20T02:08:49;6.13;;;2.03;;
27275;SDS011;14772;47.398;8.080;2022-09-20T02:14:07;9.90;;;2.33;;
27275;SDS011;14772;47.398;8.080;2022-09-20T02:19:32;7.13;;;2.10;;
27275;SDS011;14772;47.398;8.080;2022-09-20T02:24:40;6.43;;;2.00;;
27275;SDS011;14772;47.398;8.080;2022-09-20T02:29:43;7.37;;;2.20;;
27275;SDS011;14772;47.398;8.080;2022-09-20T02:34:50;6.47;;;2.07;;
27275;SDS011;14772;47.398;8.080;2022-09-20T02:39:59;8.97;;;2.20;;
27275;SDS011;14772;47.398;8.080;2022-09-20T02:45:00;9.67;;;2.50;;
27275;SDS011;14772;47.398;8.080;2022-09-20T02:50:17;6.33;;;2.10;;
27275;SDS011;14772;47.398;8.080;2022-09-20T02:55:24;7.13;;;2.07;;
27275;SDS011;14772;47.398;8.080;2022-09-20T03:00:25;9.93;;;2.40;;
27275;SDS011;14772;47.398;8.080;2022-09-20T03:05:28;8.17;;;2.30;;
27275;SDS011;14772;47.398;8.080;2022-09-20T03:10:28;8.33;;;2.10;;
27275;SDS011;14772;47.398;8.080;2022-09-20T03:15:30;5.10;;;2.07;;
27275;SDS011;14772;47.398;8.080;2022-09-20T03:20:33;7.13;;;2.00;;
27275;SDS011;14772;47.398;8.080;2022-09-20T03:25:40;9.03;;;2.00;;
27275;SDS011;14772;47.398;8.080;2022-09-20T03:30:47;6.93;;;2.20;;
27275;SDS011;14772;47.398;8.080;2022-09-20T03:35:52;7.87;;;2.17;;
27275;SDS011;14772;47.398;8.080;2022-09-20T03:40:57;8.93;;;2.30;;
27275;SDS011;14772;47.398;8.080;2022-09-20T03:46:19;7.77;;;1.97;;
27275;SDS011;14772;47.398;8.080;2022-09-20T03:51:21;8.17;;;2.10;;
27275;SDS011;14772;47.398;8.080;2022-09-20T03:56:42;8.83;;;2.00;;
27275;SDS011;14772;47.398;8.080;2022-09-20T04:02:07;10.33;;;2.17;;
27275;SDS011;14772;47.398;8.080;2022-09-20T04:07:14;9.87;;;2.40;;
27275;SDS011;14772;47.398;8.080;2022-09-20T04:12:18;8.67;;;2.47;;
27275;SDS011;14772;47.398;8.080;2022-09-20T04:17:21;5.30;;;2.00;;
27275;SDS011;14772;47.398;8.080;2022-09-20T04:22:23;7.80;;;2.37;;
27275;SDS011;14772;47.398;8.080;2022-09-20T04:27:24;9.17;;;2.17;;
27275;SDS011;14772;47.398;8.080;2022-09-20T04:32:24;10.73;;;2.33;;
27275;SDS011;14772;47.398;8.080;2022-09-20T04:37:26;11.37;;;2.33;;
27275;SDS011;14772;47.398;8.080;2022-09-20T04:59:20;5.60;;;2.00;;
27275;SDS011;14772;47.398;8.080;2022-09-20T05:10:17;11.30;;;2.73;;
27275;SDS011;14772;47.398;8.080;2022-09-20T05:15:31;10.47;;;2.57;;
27275;SDS011;14772;47.398;8.080;2022-09-20T05:20:43;11.73;;;2.70;;
27275;SDS011;14772;47.398;8.080;2022-09-20T05:25:52;10.90;;;2.70;;
27275;SDS011;14772;47.398;8.080;2022-09-20T05:30:56;9.13;;;2.20;;
27275;SDS011;14772;47.398;8.080;2022-09-20T05:36:00;10.73;;;2.50;;
27275;SDS011;14772;47.398;8.080;2022-09-20T05:41:05;8.57;;;2.40;;
27275;SDS011;14772;47.398;8.080;2022-09-20T05:46:12;9.30;;;2.70;;
27275;SDS011;14772;47.398;8.080;2022-09-20T05:51:15;10.47;;;3.17;;
27275;SDS011;14772;47.398;8.080;2022-09-20T05:56:17;11.70;;;3.13;;
27275;SDS011;14772;47.398;8.080;2022-09-20T06:01:22;12.23;;;3.00;;
27275;SDS011;14772;47.398;8.080;2022-09-20T06:06:21;9.80;;;2.77;;
27275;SDS011;14772;47.398;8.080;2022-09-20T06:11:29;10.43;;;2.87;;
27275;SDS011;14772;47.398;8.080;2022-09-20T06:16:42;12.35;;;3.35;;
27275;SDS011;14772;47.398;8.080;2022-09-20T06:21:52;11.87;;;2.90;;
27275;SDS011;14772;47.398;8.080;2022-09-20T06:26:51;12.03;;;3.10;;
27275;SDS011;14772;47.398;8.080;2022-09-20T06:31:52;11.53;;;2.90;;
27275;SDS011;14772;47.398;8.080;2022-09-20T06:36:52;8.90;;;2.70;;
27275;SDS011;14772;47.398;8.080;2022-09-20T06:41:52;10.73;;;2.83;;
27275;SDS011;14772;47.398;8.080;2022-09-20T06:46:49;10.97;;;2.80;;
27275;SDS011;14772;47.398;8.080;2022-09-20T06:51:47;13.93;;;3.03;;
27275;SDS011;14772;47.398;8.080;2022-09-20T06:56:45;11.33;;;2.90;;
27275;SDS011;14772;47.398;8.080;2022-09-20T07:01:44;13.27;;;2.90;;
27275;SDS011;14772;47.398;8.080;2022-09-20T07:06:41;13.63;;;3.30;;
27275;SDS011;14772;47.398;8.080;2022-09-20T07:11:38;11.87;;;3.10;;
27275;SDS011;14772;47.398;8.080;2022-09-20T07:16:36;10.10;;;3.07;;
27275;SDS011;14772;47.398;8.080;2022-09-20T07:21:33;15.17;;;3.17;;
27275;SDS011;14772;47.398;8.080;2022-09-20T07:26:31;13.83;;;3.10;;
27275;SDS011;14772;47.398;8.080;2022-09-20T07:31:28;12.00;;;3.43;;
27275;SDS011;14772;47.398;8.080;2022-09-20T07:36:25;15.57;;;3.57;;
27275;SDS011;14772;47.398;8.080;2022-09-20T07:41:23;10.67;;;2.90;;
27275;SDS011;14772;47.398;8.080;2022-09-20T07:46:20;10.93;;;3.00;;
27275;SDS011;14772;47.398;8.080;2022-09-20T07:51:18;12.87;;;3.17;;
27275;SDS011;14772;47.398;8.080;2022-09-20T07:56:15;11.27;;;2.93;;
27275;SDS011;14772;47.398;8.080;2022-09-20T08:01:12;14.00;;;2.90;;
27275;SDS011;14772;47.398;8.080;2022-09-20T08:06:10;11.77;;;3.00;;
27275;SDS011;14772;47.398;8.080;2022-09-20T08:11:09;10.33;;;2.80;;
27275;SDS011;14772;47.398;8.080;2022-09-20T08:16:08;12.33;;;2.60;;
27275;SDS011;14772;47.398;8.080;2022-09-20T08:21:07;10.50;;;2.60;;
27275;SDS011;14772;47.398;8.080;2022-09-20T08:26:06;9.47;;;2.60;;
27275;SDS011;14772;47.398;8.080;2022-09-20T08:31:05;16.20;;;2.90;;
27275;SDS011;14772;47.398;8.080;2022-09-20T08:36:04;10.87;;;2.70;;
27275;SDS011;14772;47.398;8.080;2022-09-20T08:41:03;11.17;;;2.53;;
27275;SDS011;14772;47.398;8.080;2022-09-20T08:46:03;12.20;;;2.60;;
27275;SDS011;14772;47.398;8.080;2022-09-20T08:51:02;13.20;;;2.67;;
27275;SDS011;14772;47.398;8.080;2022-09-20T08:56:00;11.30;;;2.20;;
27275;SDS011;14772;47.398;8.080;2022-09-20T09:00:58;6.50;;;1.90;;
27275;SDS011;14772;47.398;8.080;2022-09-20T09:05:55;10.10;;;2.20;;
27275;SDS011;14772;47.398;8.080;2022-09-20T09:10:52;10.20;;;2.13;;
27275;SDS011;14772;47.398;8.080;2022-09-20T09:15:53;11.10;;;2.60;;
27275;SDS011;14772;47.398;8.080;2022-09-20T09:20:53;11.73;;;2.40;;
27275;SDS011;14772;47.398;8.080;2022-09-20T09:25:50;7.23;;;1.80;;
27275;SDS011;14772;47.398;8.080;2022-09-20T09:30:49;10.70;;;1.87;;
27275;SDS011;14772;47.398;8.080;2022-09-20T09:35:51;9.53;;;2.20;;
27275;SDS011;14772;47.398;8.080;2022-09-20T09:40:51;12.13;;;2.30;;
27275;SDS011;14772;47.398;8.080;2022-09-20T09:45:50;9.63;;;2.20;;
27275;SDS011;14772;47.398;8.080;2022-09-20T09:50:47;11.73;;;2.30;;
27275;SDS011;14772;47.398;8.080;2022-09-20T09:55:53;10.87;;;2.17;;
27275;SDS011;14772;47.398;8.080;2022-09-20T10:00:59;11.77;;;2.27;;
27275;SDS011;14772;47.398;8.080;2022-09-20T10:06:06;11.20;;;2.40;;
27275;SDS011;14772;47.398;8.080;2022-09-20T10:11:12;12.07;;;2.40;;
27275;SDS011;14772;47.398;8.080;2022-09-20T10:16:16;10.70;;;2.30;;
27275;SDS011;14772;47.398;8.080;2022-09-20T10:21:24;9.93;;;2.20;;
27275;SDS011;14772;47.398;8.080;2022-09-20T10:32:19;8.47;;;1.87;;
27275;SDS011;14772;47.398;8.080;2022-09-20T10:37:20;7.13;;;1.90;;
27275;SDS011;14772;47.398;8.080;2022-09-20T10:42:22;8.00;;;2.00;;
27275;SDS011;14772;47.398;8.080;2022-09-20T10:47:23;7.30;;;1.80;;
27275;SDS011;14772;47.398;8.080;2022-09-20T10:52:27;9.47;;;2.03;;
27275;SDS011;14772;47.398;8.080;2022-09-20T10:57:47;9.60;;;2.20;;
27275;SDS011;14772;47.398;8.080;2022-09-20T11:02:51;3.87;;;1.70;;
27275;SDS011;14772;47.398;8.080;2022-09-20T11:07:57;9.63;;;1.80;;
27275;SDS011;14772;47.398;8.080;2022-09-20T11:12:59;8.20;;;1.80;;
27275;SDS011;14772;47.398;8.080;2022-09-20T11:18:01;9.50;;;2.00;;
27275;SDS011;14772;47.398;8.080;2022-09-20T11:23:03;10.43;;;1.97;;
27275;SDS011;14772;47.398;8.080;2022-09-20T11:28:06;9.07;;;1.70;;
27275;SDS011;14772;47.398;8.080;2022-09-20T11:33:06;6.90;;;1.80;;
27275;SDS011;14772;47.398;8.080;2022-09-20T11:38:09;6.53;;;1.67;;
27275;SDS011;14772;47.398;8.080;2022-09-20T11:43:10;6.83;;;1.60;;
27275;SDS011;14772;47.398;8.080;2022-09-20T11:48:12;9.93;;;2.20;;
27275;SDS011;14772;47.398;8.080;2022-09-20T11:53:13;12.67;;;1.87;;
27275;SDS011;14772;47.398;8.080;2022-09-20T11:58:16;9.60;;;1.80;;
27275;SDS011;14772;47.398;8.080;2022-09-20T12:03:25;20.03;;;2.80;;
27275;SDS011;14772;47.398;8.080;2022-09-20T12:08:26;11.33;;;2.50;;
27275;SDS011;14772;47.398;8.080;2022-09-20T12:13:26;6.70;;;1.80;;
27275;SDS011;14772;47.398;8.080;2022-09-20T12:18:32;8.00;;;1.70;;
27275;SDS011;14772;47.398;8.080;2022-09-20T12:41:02;10.03;;;2.00;;
27275;SDS011;14772;47.398;8.080;2022-09-20T12:46:01;6.60;;;1.67;;
27275;SDS011;14772;47.398;8.080;2022-09-20T12:51:00;7.73;;;1.77;;
27275;SDS011;14772;47.398;8.080;2022-09-20T12:56:04;9.40;;;1.80;;
27275;SDS011;14772;47.398;8.080;2022-09-20T13:06:29;6.67;;;1.70;;
27275;SDS011;14772;47.398;8.080;2022-09-20T13:11:28;8.33;;;1.83;;
27275;SDS011;14772;47.398;8.080;2022-09-20T13:16:29;8.57;;;1.90;;
27275;SDS011;14772;47.398;8.080;2022-09-20T13:21:28;11.07;;;1.77;;
27275;SDS011;14772;47.398;8.080;2022-09-20T13:26:28;8.97;;;2.13;;
27275;SDS011;14772;47.398;8.080;2022-09-20T13:31:30;5.80;;;1.60;;
27275;SDS011;14772;47.398;8.080;2022-09-20T13:36:29;8.60;;;1.90;;
27275;SDS011;14772;47.398;8.080;2022-09-20T13:41:27;6.07;;;1.80;;
27275;SDS011;14772;47.398;8.080;2022-09-20T13:46:28;9.93;;;2.07;;
27275;SDS011;14772;47.398;8.080;2022-09-20T13:51:27;7.03;;;1.87;;
27275;SDS011;14772;47.398;8.080;2022-09-20T13:56:26;10.03;;;1.90;;
27275;SDS011;14772;47.398;8.080;2022-09-20T14:01:33;6.50;;;1.77;;
27275;SDS011;14772;47.398;8.080;2022-09-20T14:06:31;5.97;;;1.80;;
27275;SDS011;14772;47.398;8.080;2022-09-20T14:11:30;8.00;;;1.93;;
27275;SDS011;14772;47.398;8.080;2022-09-20T14:16:28;7.17;;;1.77;;
27275;SDS011;14772;47.398;8.080;2022-09-20T14:21:31;8.47;;;1.90;;
27275;SDS011;14772;47.398;8.080;2022-09-20T14:26:29;8.20;;;1.80;;
27275;SDS011;14772;47.398;8.080;2022-09-20T14:31:27;7.67;;;1.87;;
27275;SDS011;14772;47.398;8.080;2022-09-20T14:36:28;7.07;;;1.93;;
27275;SDS011;14772;47.398;8.080;2022-09-20T14:41:29;5.50;;;1.80;;
27275;SDS011;14772;47.398;8.080;2022-09-20T14:46:29;9.37;;;1.97;;
27275;SDS011;14772;47.398;8.080;2022-09-20T14:51:29;9.20;;;1.80;;
27275;SDS011;14772;47.398;8.080;2022-09-20T14:56:31;8.73;;;2.17;;
27275;SDS011;14772;47.398;8.080;2022-09-20T15:01:28;9.13;;;2.20;;
27275;SDS011;14772;47.398;8.080;2022-09-20T15:06:25;8.80;;;2.00;;
27275;SDS011;14772;47.398;8.080;2022-09-20T15:11:22;9.73;;;2.33;;
27275;SDS011;14772;47.398;8.080;2022-09-20T15:16:19;9.37;;;1.90;;
27275;SDS011;14772;47.398;8.080;2022-09-20T15:21:17;8.47;;;2.00;;
27275;SDS011;14772;47.398;8.080;2022-09-20T15:26:15;11.23;;;2.10;;
27275;SDS011;14772;47.398;8.080;2022-09-20T15:31:15;7.47;;;1.83;;
27275;SDS011;14772;47.398;8.080;2022-09-20T15:36:13;8.73;;;2.27;;
27275;SDS011;14772;47.398;8.080;2022-09-20T15:41:10;10.20;;;2.00;;
27275;SDS011;14772;47.398;8.080;2022-09-20T15:46:16;7.27;;;1.90;;
27275;SDS011;14772;47.398;8.080;2022-09-20T15:51:15;7.37;;;1.70;;
27275;SDS011;14772;47.398;8.080;2022-09-20T15:56:14;8.80;;;2.13;;
27275;SDS011;14772;47.398;8.080;2022-09-20T16:01:13;8.23;;;2.07;;
27275;SDS011;14772;47.398;8.080;2022-09-20T16:06:12;11.57;;;1.90;;
27275;SDS011;14772;47.398;8.080;2022-09-20T16:11:11;5.63;;;1.70;;
27275;SDS011;14772;47.398;8.080;2022-09-20T16:16:09;9.97;;;1.97;;
27275;SDS011;14772;47.398;8.080;2022-09-20T16:21:07;6.20;;;1.90;;
27275;SDS011;14772;47.398;8.080;2022-09-20T16:26:05;8.43;;;2.20;;
27275;SDS011;14772;47.398;8.080;2022-09-20T16:31:04;8.07;;;2.03;;
27275;SDS011;14772;47.398;8.080;2022-09-20T16:36:01;7.13;;;1.63;;
27275;SDS011;14772;47.398;8.080;2022-09-20T16:40:59;6.67;;;1.80;;
27275;SDS011;14772;47.398;8.080;2022-09-20T16:45:59;8.23;;;1.90;;
27275;SDS011;14772;47.398;8.080;2022-09-20T16:50:56;7.00;;;1.90;;
27275;SDS011;14772;47.398;8.080;2022-09-20T16:55:54;7.93;;;1.90;;
27275;SDS011;14772;47.398;8.080;2022-09-20T17:00:51;6.83;;;1.70;;
27275;SDS011;14772;47.398;8.080;2022-09-20T17:05:48;7.17;;;1.83;;
27275;SDS011;14772;47.398;8.080;2022-09-20T17:10:45;6.07;;;1.77;;
27275;SDS011;14772;47.398;8.080;2022-09-20T17:15:43;8.07;;;1.97;;
27275;SDS011;14772;47.398;8.080;2022-09-20T17:20:40;5.43;;;1.73;;
27275;SDS011;14772;47.398;8.080;2022-09-20T17:25:37;6.63;;;2.10;;
27275;SDS011;14772;47.398;8.080;2022-09-20T17:30:34;9.27;;;2.03;;
27275;SDS011;14772;47.398;8.080;2022-09-20T17:35:31;8.23;;;2.17;;
27275;SDS011;14772;47.398;8.080;2022-09-20T17:40:28;10.80;;;3.13;;
27275;SDS011;14772;47.398;8.080;2022-09-20T17:45:26;7.80;;;2.13;;
27275;SDS011;14772;47.398;8.080;2022-09-20T17:50:23;9.47;;;2.10;;
27275;SDS011;14772;47.398;8.080;2022-09-20T17:55:20;10.73;;;1.97;;
27275;SDS011;14772;47.398;8.080;2022-09-20T18:00:17;7.47;;;1.90;;
27275;SDS011;14772;47.398;8.080;2022-09-20T18:05:15;6.70;;;1.70;;
27275;SDS011;14772;47.398;8.080;2022-09-20T18:10:12;8.40;;;2.20;;
27275;SDS011;14772;47.398;8.080;2022-09-20T18:15:09;9.10;;;2.50;;
27275;SDS011;14772;47.398;8.080;2022-09-20T18:20:08;9.23;;;2.50;;
27275;SDS011;14772;47.398;8.080;2022-09-20T18:25:06;7.60;;;2.30;;
27275;SDS011;14772;47.398;8.080;2022-09-20T18:30:05;9.97;;;2.50;;
27275;SDS011;14772;47.398;8.080;2022-09-20T18:35:04;10.00;;;2.53;;
27275;SDS011;14772;47.398;8.080;2022-09-20T18:40:03;11.03;;;2.83;;
27275;SDS011;14772;47.398;8.080;2022-09-20T18:45:01;10.20;;;2.60;;
27275;SDS011;14772;47.398;8.080;2022-09-20T18:49:58;10.37;;;2.77;;
27275;SDS011;14772;47.398;8.080;2022-09-20T18:54:56;9.93;;;2.23;;
27275;SDS011;14772;47.398;8.080;2022-09-20T18:59:53;10.30;;;2.47;;
27275;SDS011;14772;47.398;8.080;2022-09-20T19:04:55;9.77;;;2.50;;
27275;SDS011;14772;47.398;8.080;2022-09-20T19:09:58;11.63;;;2.60;;
27275;SDS011;14772;47.398;8.080;2022-09-20T19:15:02;9.87;;;2.87;;
27275;SDS011;14772;47.398;8.080;2022-09-20T19:20:07;10.17;;;2.60;;
27275;SDS011;14772;47.398;8.080;2022-09-20T19:25:14;8.20;;;2.60;;
27275;SDS011;14772;47.398;8.080;2022-09-20T19:30:17;10.47;;;3.00;;
27275;SDS011;14772;47.398;8.080;2022-09-20T19:35:17;8.67;;;2.40;;
27275;SDS011;14772;47.398;8.080;2022-09-20T19:40:22;10.70;;;2.40;;
27275;SDS011;14772;47.398;8.080;2022-09-20T19:45:25;9.63;;;2.43;;
27275;SDS011;14772;47.398;8.080;2022-09-20T19:50:28;9.47;;;2.57;;
27275;SDS011;14772;47.398;8.080;2022-09-20T19:55:29;12.60;;;3.00;;
27275;SDS011;14772;47.398;8.080;2022-09-20T20:00:28;10.30;;;2.67;;
27275;SDS011;14772;47.398;8.080;2022-09-20T20:05:27;12.77;;;2.60;;
27275;SDS011;14772;47.398;8.080;2022-09-20T20:10:25;9.80;;;2.73;;
27275;SDS011;14772;47.398;8.080;2022-09-20T20:15:32;12.33;;;2.70;;
27275;SDS011;14772;47.398;8.080;2022-09-20T20:20:37;9.20;;;2.70;;
27275;SDS011;14772;47.398;8.080;2022-09-20T20:25:38;10.43;;;2.97;;
27275;SDS011;14772;47.398;8.080;2022-09-20T20:30:38;8.87;;;2.60;;
27275;SDS011;14772;47.398;8.080;2022-09-20T20:35:35;11.60;;;2.63;;
27275;SDS011;14772;47.398;8.080;2022-09-20T20:40:33;10.13;;;2.60;;
27275;SDS011;14772;47.398;8.080;2022-09-20T20:45:30;9.70;;;2.60;;
27275;SDS011;14772;47.398;8.080;2022-09-20T20:50:27;10.30;;;2.53;;
27275;SDS011;14772;47.398;8.080;2022-09-20T20:55:24;8.70;;;2.60;;
27275;SDS011;14772;47.398;8.080;2022-09-20T21:00:22;9.30;;;2.60;;
27275;SDS011;14772;47.398;8.080;2022-09-20T21:05:19;10.70;;;2.60;;
27275;SDS011;14772;47.398;8.080;2022-09-20T21:10:16;11.37;;;2.60;;
27275;SDS011;14772;47.398;8.080;2022-09-20T21:15:14;11.13;;;2.60;;
27275;SDS011;14772;47.398;8.080;2022-09-20T21:20:11;9.37;;;2.60;;
27275;SDS011;14772;47.398;8.080;2022-09-20T21:25:08;10.63;;;2.73;;
27275;SDS011;14772;47.398;8.080;2022-09-20T21:30:07;10.87;;;3.07;;
27275;SDS011;14772;47.398;8.080;2022-09-20T21:35:08;10.80;;;2.63;;
27275;SDS011;14772;47.398;8.080;2022-09-20T21:40:06;10.33;;;2.80;;
27275;SDS011;14772;47.398;8.080;2022-09-20T21:45:06;9.07;;;2.43;;
27275;SDS011;14772;47.398;8.080;2022-09-20T21:50:05;10.97;;;2.67;;
27275;SDS011;14772;47.398;8.080;2022-09-20T21:55:04;9.63;;;2.57;;
27275;SDS011;14772;47.398;8.080;2022-09-20T22:00:04;10.13;;;2.60;;
27275;SDS011;14772;47.398;8.080;2022-09-20T22:05:03;8.50;;;2.37;;
27275;SDS011;14772;47.398;8.080;2022-09-20T22:10:01;9.63;;;2.60;;
27275;SDS011;14772;47.398;8.080;2022-09-20T22:14:58;8.87;;;2.53;;
27275;SDS011;14772;47.398;8.080;2022-09-20T22:19:55;7.70;;;2.40;;
27275;SDS011;14772;47.398;8.080;2022-09-20T22:24:53;8.87;;;2.50;;
27275;SDS011;14772;47.398;8.080;2022-09-20T22:29:50;8.30;;;2.60;;
27275;SDS011;14772;47.398;8.080;2022-09-20T22:34:47;9.17;;;2.73;;
27275;SDS011;14772;47.398;8.080;2022-09-20T22:39:44;10.17;;;2.50;;
27275;SDS011;14772;47.398;8.080;2022-09-20T22:44:41;9.70;;;2.40;;
27275;SDS011;14772;47.398;8.080;2022-09-20T22:49:38;9.67;;;2.87;;
27275;SDS011;14772;47.398;8.080;2022-09-20T22:54:36;9.20;;;2.50;;
27275;SDS011;14772;47.398;8.080;2022-09-20T22:59:33;8.60;;;2.50;;
27275;SDS011;14772;47.398;8.080;2022-09-20T23:04:30;7.73;;;2.50;;
27275;SDS011;14772;47.398;8.080;2022-09-20T23:09:27;9.13;;;2.40;;
27275;SDS011;14772;47.398;8.080;2022-09-20T23:14:24;7.53;;;2.40;;
27275;SDS011;14772;47.398;8.080;2022-09-20T23:19:21;9.70;;;2.50;;
27275;SDS011;14772;47.398;8.080;2022-09-20T23:24:19;9.27;;;2.60;;
27275;SDS011;14772;47.398;8.080;2022-09-20T23:29:16;9.30;;;2.60;;
27275;SDS011;14772;47.398;8.080;2022-09-20T23:34:13;7.83;;;2.40;;
27275;SDS011;14772;47.398;8.080;2022-09-20T23:39:11;8.43;;;2.60;;
27275;SDS011;14772;47.398;8.080;2022-09-20T23:44:09;9.23;;;2.50;;
27275;SDS011;14772;47.398;8.080;2022-09-20T23:49:06;8.17;;;2.77;;
27275;SDS011;14772;47.398;8.080;2022-09-20T23:54:03;8.90;;;2.40;;
27275;SDS011;14772;47.398;8.080;2022-09-20T23:59:00;10.70;;;2.57;;
